HTIR/IRI METAR and TAF weather

Enter ICAO airport designator
Station Type Date Time Source
HTIR METAR 2022/11/26 09:00 UTC NOAA

HTIR 260900Z 09010KT 9999 FEW028 26/11 Q1019


Station Type Date Time Source
HTIR Decoded METAR 2022/11/26 09:00 UTC NOAA

Iringa, Tanzania (HTIR) 07-40S 035-45E 1428M
Nov 26, 2022 - 04:00 AM EST / 2022.11.26 0900 UTC
Wind: from the E (090 degrees) at 12 MPH (10 KT):0
Visibility: greater than 7 mile(s):0
Sky conditions: mostly clear
Temperature: 78 F (26 C)
Dew Point: 51 F (11 C)
Relative Humidity: 39%
Pressure (altimeter): 30.09 in. Hg (1019 hPa)
ob: HTIR 260900Z 09010KT 9999 FEW028 26/11 Q1019
cycle: 9

Station Type Date Time Source
HTIR TAF UTC NOAA

Error!

Example: see airport list